Time;durP1;ratioP1;P1;durP2;ratioP2;P2;SDS_P1;SDS_P2;PMS_P1;PMS_P2;Temp;Humidity;BMP_temperature;BMP_pressure;BME280_temperature;BME280_humidity;BME280_pressure;Samples;Min_cycle;Max_cycle;Signal;HPM_P1;HPM_P2
2023/12/01 00:01:15;;;;;;;21.48;13.77;;;;;;;16.83;42.29;91657.34;6158382;22;20004;-91
2023/12/01 00:03:40;;;;;;;19.38;13.82;;;;;;;16.81;42.59;91663.34;6184056;23;20071;-91
2023/12/01 00:06:06;;;;;;;20.85;13.95;;;;;;;16.78;42.50;91650.78;6158928;22;20437;-91
2023/12/01 00:08:32;;;;;;;17.60;12.27;;;;;;;16.83;42.43;91654.63;6158594;23;20088;-91
2023/12/01 00:10:57;;;;;;;15.93;10.90;;;;;;;16.79;42.41;91647.50;6158606;23;20017;-91
2023/12/01 00:13:23;;;;;;;22.13;12.25;;;;;;;16.75;42.49;91649.84;6182936;22;20017;-91
2023/12/01 00:15:48;;;;;;;17.80;11.55;;;;;;;16.78;42.29;91658.97;6159220;23;20051;-92
2023/12/01 00:18:14;;;;;;;19.05;12.18;;;;;;;16.76;42.49;91664.22;6157968;22;20016;-91
2023/12/01 00:20:39;;;;;;;15.73;11.18;;;;;;;16.81;42.31;91659.88;6183586;23;20071;-91
2023/12/01 00:23:04;;;;;;;19.08;12.63;;;;;;;16.82;42.69;91666.81;6157805;22;20016;-92
2023/12/01 00:25:30;;;;;;;18.10;10.90;;;;;;;16.82;42.33;91666.81;6159141;23;20020;-91
2023/12/01 00:27:56;;;;;;;15.05;11.45;;;;;;;16.76;42.27;91656.78;6158025;23;20024;-92
2023/12/01 00:30:23;;;;;;;17.95;11.63;;;;;;;16.85;41.99;91655.53;6157220;22;20019;-93
2023/12/01 00:32:49;;;;;;;19.02;12.45;;;;;;;16.77;42.34;91652.06;6184043;23;20012;-92
2023/12/01 00:35:15;;;;;;;17.38;11.60;;;;;;;16.82;42.57;91647.69;6183140;22;20008;-92
2023/12/01 00:37:40;;;;;;;17.75;11.20;;;;;;;16.80;42.44;91640.06;6182986;23;20048;-91
2023/12/01 00:40:06;;;;;;;17.75;11.57;;;;;;;16.82;42.23;91644.97;6157411;22;20012;-91
2023/12/01 00:42:32;;;;;;;17.65;11.07;;;;;;;16.78;42.47;91640.59;6183721;23;20020;-92
2023/12/01 00:44:58;;;;;;;20.75;12.02;;;;;;;16.82;42.69;91647.69;6158520;23;20017;-91
2023/12/01 00:47:23;;;;;;;16.60;10.43;;;;;;;16.78;42.39;91656.22;6183253;22;20020;-91
2023/12/01 00:49:48;;;;;;;15.05;11.00;;;;;;;16.84;42.36;91654.06;6182216;23;20013;-91
2023/12/01 00:52:14;;;;;;;16.42;11.05;;;;;;;16.79;42.07;91650.25;6158073;22;20024;-91
2023/12/01 00:54:41;;;;;;;17.10;10.75;;;;;;;16.81;42.10;91643.50;6158220;23;20024;-92
2023/12/01 00:57:06;;;;;;;16.70;10.38;;;;;;;16.83;42.05;91640.97;6158567;22;20047;-91
2023/12/01 00:59:32;;;;;;;15.98;10.05;;;;;;;16.79;42.55;91647.50;6182775;23;20395;-91
2023/12/01 01:01:59;;;;;;;15.18;10.68;;;;;;;16.79;42.44;91641.31;6183436;23;20029;-92
2023/12/01 01:04:25;;;;;;;14.65;10.30;;;;;;;16.84;42.41;91648.63;6157052;23;20027;-92
2023/12/01 01:06:50;;;;;;;14.50;10.60;;;;;;;16.80;42.51;91640.06;6158747;23;20020;-91
2023/12/01 01:09:16;;;;;;;15.70;9.95;;;;;;;16.83;42.27;91644.44;6182155;22;20031;-92
2023/12/01 01:11:41;;;;;;;16.50;10.15;;;;;;;16.82;42.24;91655.88;6158173;23;20016;-91
2023/12/01 01:14:06;;;;;;;16.75;10.63;;;;;;;16.78;42.32;91665.16;6157548;22;20016;-91
2023/12/01 01:16:32;;;;;;;14.38;10.18;;;;;;;16.73;42.29;91668.78;6183503;23;20021;-92
2023/12/01 01:18:57;;;;;;;14.60;10.15;;;;;;;16.77;42.52;91668.41;6158502;23;20032;-91
2023/12/01 01:21:23;;;;;;;14.90;9.93;;;;;;;16.81;42.38;91659.88;6157634;22;20375;-92
2023/12/01 01:23:48;;;;;;;14.85;10.07;;;;;;;16.83;41.93;91651.88;6183813;23;20028;-92
2023/12/01 01:26:14;;;;;;;15.27;9.63;;;;;;;16.82;42.07;91642.25;6157400;22;20008;-92
2023/12/01 01:28:40;;;;;;;16.65;10.07;;;;;;;16.76;42.86;91647.84;6157278;23;20027;-92
2023/12/01 01:31:06;;;;;;;13.95;9.38;;;;;;;16.84;42.26;91643.16;6181841;22;20055;-92
2023/12/01 01:33:31;;;;;;;14.65;9.50;;;;;;;16.82;41.83;91634.78;6183401;23;20016;-91
2023/12/01 01:35:57;;;;;;;15.90;9.05;;;;;;;16.85;42.31;91647.34;6157940;23;20016;-92
2023/12/01 01:38:22;;;;;;;15.70;9.88;;;;;;;16.83;42.53;91641.69;6156823;22;20142;-92
2023/12/01 01:40:48;;;;;;;14.18;9.32;;;;;;;16.76;42.50;91637.69;6182290;23;20013;-92
2023/12/01 01:43:22;;;;;;;13.95;8.65;;;;;;;16.86;42.21;91637.16;6157932;22;20066;-92
2023/12/01 01:45:53;;;;;;;14.40;8.98;;;;;;;16.79;42.32;91633.13;6158448;23;20055;-92
2023/12/01 01:48:19;;;;;;;16.95;8.60;;;;;;;16.75;42.68;91624.56;6158121;22;20025;-92
2023/12/01 01:50:45;;;;;;;14.77;9.00;;;;;;;16.76;42.38;91621.31;6156459;23;20009;-93
2023/12/01 01:53:10;;;;;;;12.90;8.85;;;;;;;16.76;42.49;91624.03;6157616;22;20021;-91
2023/12/01 01:55:36;;;;;;;13.00;8.68;;;;;;;16.74;42.56;91626.56;6182905;23;20024;-92
2023/12/01 01:58:01;;;;;;;11.73;8.27;;;;;;;16.77;42.10;91630.22;6157722;23;20079;-92
2023/12/01 02:00:27;;;;;;;13.70;7.97;;;;;;;16.83;42.22;91622.59;6156389;23;20487;-92
2023/12/01 02:02:52;;;;;;;11.43;8.00;;;;;;;16.87;42.20;91622.97;6182379;23;20094;-92
2023/12/01 02:05:19;;;;;;;13.60;9.25;;;;;;;16.82;42.18;91618.41;6181601;22;20016;-91
2023/12/01 02:07:44;;;;;;;11.75;7.93;;;;;;;16.77;42.58;91630.94;6182302;23;20024;-93
2023/12/01 02:10:15;;;;;;;12.00;9.02;;;;;;;16.82;42.06;91636.78;6182113;22;20092;-91
2023/12/01 02:12:41;;;;;;;13.10;8.85;;;;;;;16.87;42.11;91617.50;6183732;23;20103;-92
2023/12/01 02:15:10;;;;;;;13.48;8.00;;;;;;;16.77;42.62;91616.56;6182453;22;20016;-93
2023/12/01 02:17:37;;;;;;;13.23;8.23;;;;;;;16.77;42.33;91617.31;6182817;23;20020;-91
2023/12/01 02:20:05;;;;;;;11.45;7.70;;;;;;;16.78;42.05;91618.03;6156711;22;20079;-91
2023/12/01 02:22:31;;;;;;;11.48;7.78;;;;;;;16.73;42.46;91614.19;6158160;23;20036;-92
2023/12/01 02:24:56;;;;;;;12.75;8.50;;;;;;;16.75;42.41;91602.75;6158091;23;20021;-91
2023/12/01 02:27:22;;;;;;;12.18;7.93;;;;;;;16.84;42.10;91598.75;6156839;22;20029;-91
2023/12/01 02:29:47;;;;;;;9.98;6.93;;;;;;;16.75;42.74;91592.56;6157739;23;20021;-92
2023/12/01 02:32:13;;;;;;;10.13;7.03;;;;;;;16.73;42.15;91594.38;6157061;22;20013;-91
2023/12/01 02:34:38;;;;;;;11.90;7.70;;;;;;;16.74;42.53;91590.38;6157285;23;20027;-91
2023/12/01 02:37:04;;;;;;;9.13;7.20;;;;;;;16.79;42.37;91584.03;6156948;22;20012;-92
2023/12/01 02:39:30;;;;;;;11.50;6.90;;;;;;;16.77;42.32;91587.28;6157505;23;20021;-91
2023/12/01 02:41:56;;;;;;;10.15;7.10;;;;;;;16.80;42.40;91590.94;6157732;23;20031;-92
2023/12/01 02:44:21;;;;;;;10.20;7.40;;;;;;;16.75;42.64;91583.66;6156800;22;20016;-91
2023/12/01 02:46:47;;;;;;;10.05;6.80;;;;;;;16.79;42.29;91586.75;6157116;23;20013;-93
2023/12/01 02:49:12;;;;;;;12.48;7.95;;;;;;;16.75;42.36;91597.28;6156551;22;20083;-91
2023/12/01 02:51:40;;;;;;;10.55;6.72;;;;;;;16.82;42.05;91593.84;6182045;23;20088;-91
2023/12/01 02:54:06;;;;;;;8.07;6.40;;;;;;;16.75;42.14;91591.84;6157951;22;20095;-91
2023/12/01 02:56:31;;;;;;;10.13;7.13;;;;;;;16.79;42.06;91584.75;6157182;23;20036;-92
2023/12/01 02:58:57;;;;;;;9.93;6.82;;;;;;;16.76;42.08;91593.28;6181451;23;20032;-92
2023/12/01 03:01:23;;;;;;;8.48;6.15;;;;;;;16.77;42.18;91595.47;6156247;22;20032;-92
2023/12/01 03:03:51;;;;;;;7.80;6.15;;;;;;;16.86;42.15;91591.50;6157450;23;20519;-92
2023/12/01 03:06:17;;;;;;;10.52;6.28;;;;;;;16.86;42.04;91599.69;6181494;22;20378;-93
2023/12/01 03:08:42;;;;;;;9.85;7.20;;;;;;;16.78;42.12;91596.22;6157161;23;20031;-92
2023/12/01 03:11:07;;;;;;;9.80;7.38;;;;;;;16.79;41.89;91592.22;6155476;22;20079;-93
2023/12/01 03:13:33;;;;;;;8.50;6.32;;;;;;;16.82;42.30;91604.75;6157547;23;20321;-91
2023/12/01 03:15:58;;;;;;;8.38;6.10;;;;;;;16.82;41.72;91604.75;6157378;23;20486;-92
2023/12/01 03:18:25;;;;;;;10.32;6.57;;;;;;;16.86;41.89;91601.69;6156677;22;20032;-92
2023/12/01 03:20:50;;;;;;;10.60;6.50;;;;;;;16.76;42.13;91602.19;6157069;23;20452;-92
2023/12/01 03:23:16;;;;;;;11.05;6.75;;;;;;;16.75;42.23;91605.47;6181478;22;20073;-92
2023/12/01 03:25:41;;;;;;;8.00;5.82;;;;;;;16.77;42.27;91608.38;6181679;23;20440;-92
2023/12/01 03:28:07;;;;;;;8.38;5.53;;;;;;;16.78;42.02;91601.66;6182141;22;20028;-91
2023/12/01 03:30:32;;;;;;;8.80;5.95;;;;;;;16.76;42.23;91602.19;6158705;23;20025;-92
2023/12/01 03:32:58;;;;;;;7.97;6.35;;;;;;;16.66;42.56;91586.94;6159948;23;20021;-91
2023/12/01 03:35:24;;;;;;;9.23;6.22;;;;;;;16.68;42.54;91598.72;6183941;22;20032;-93
2023/12/01 03:37:52;;;;;;;9.63;6.60;;;;;;;16.72;42.35;91599.09;6159086;23;20021;-92
2023/12/01 03:40:17;;;;;;;8.23;5.75;;;;;;;16.72;42.43;91593.66;6158180;22;20023;-92
2023/12/01 03:42:46;;;;;;;9.27;6.22;;;;;;;16.73;42.46;91584.19;6159477;23;20017;-91
2023/12/01 03:45:12;;;;;;;8.85;6.15;;;;;;;16.78;42.48;91590.75;6158731;22;20052;-92
2023/12/01 03:47:39;;;;;;;8.27;6.15;;;;;;;16.83;42.00;91602.75;6159293;23;20016;-91
2023/12/01 03:50:05;;;;;;;9.43;5.88;;;;;;;16.84;42.13;91602.22;6158695;22;20023;-92
2023/12/01 03:52:31;;;;;;;8.02;5.75;;;;;;;16.85;42.17;91613.88;6158645;23;20339;-92
2023/12/01 03:55:01;;;;;;;7.63;5.80;;;;;;;16.86;42.02;91604.41;6158476;23;20077;-93
2023/12/01 03:57:27;;;;;;;8.80;6.20;;;;;;;16.83;41.83;91608.22;6160717;23;20028;-92
2023/12/01 03:59:53;;;;;;;7.07;5.32;;;;;;;16.75;42.14;91606.19;6158897;23;20023;-93
2023/12/01 04:02:21;;;;;;;9.65;5.75;;;;;;;16.78;42.36;91605.13;6158197;22;20020;-92
2023/12/01 04:04:47;;;;;;;7.47;5.78;;;;;;;16.77;42.30;91592.75;6159015;23;20024;-91
2023/12/01 04:07:12;;;;;;;9.65;6.13;;;;;;;16.81;42.34;91589.66;6158537;22;20518;-92
2023/12/01 04:09:38;;;;;;;8.45;5.93;;;;;;;16.84;41.91;91590.59;6158063;23;20024;-91
2023/12/01 04:12:04;;;;;;;8.82;5.47;;;;;;;16.81;42.11;91594.41;6182817;22;20021;-92
2023/12/01 04:14:30;;;;;;;8.68;5.78;;;;;;;16.73;42.29;91600.56;6183538;23;20028;-91
2023/12/01 04:16:57;;;;;;;7.72;5.22;;;;;;;16.82;42.08;91585.66;6159105;23;20012;-91
2023/12/01 04:19:23;;;;;;;7.15;4.97;;;;;;;16.80;42.13;91577.28;6158666;22;20154;-92
2023/12/01 04:21:49;;;;;;;7.45;4.85;;;;;;;16.74;42.27;91591.09;6158668;23;20036;-92
2023/12/01 04:24:15;;;;;;;7.10;5.18;;;;;;;16.75;42.13;91587.09;6158187;22;20883;-90
2023/12/01 04:26:41;;;;;;;6.95;4.93;;;;;;;16.78;42.06;91580.56;6158480;23;20020;-91
2023/12/01 04:29:06;;;;;;;7.03;5.22;;;;;;;16.76;42.40;91588.56;6157871;22;20075;-92
2023/12/01 04:31:32;;;;;;;6.18;4.97;;;;;;;16.82;42.01;91598.56;6158636;23;20020;-91
2023/12/01 04:33:57;;;;;;;6.10;4.60;;;;;;;16.81;42.66;91592.41;6182819;23;20345;-90
2023/12/01 04:36:22;;;;;;;6.78;4.63;;;;;;;16.82;41.91;91593.13;6182441;22;20471;-92
2023/12/01 04:38:48;;;;;;;7.60;4.95;;;;;;;16.76;42.36;91598.75;6157998;23;20035;-90
2023/12/01 04:41:14;;;;;;;7.47;4.75;;;;;;;16.84;42.11;91596.75;6181992;22;20416;-92
2023/12/01 04:43:39;;;;;;;7.32;4.93;;;;;;;16.82;41.87;91602.03;6158362;23;20448;-92
2023/12/01 04:46:05;;;;;;;6.07;5.18;;;;;;;16.77;42.02;91598.19;6158615;22;20017;-91
2023/12/01 04:48:31;;;;;;;7.07;4.88;;;;;;;16.75;42.44;91600.75;6158847;23;20462;-92
2023/12/01 04:50:56;;;;;;;6.30;4.43;;;;;;;16.76;42.23;91596.75;6158095;23;20333;-92
2023/12/01 04:53:22;;;;;;;7.63;5.32;;;;;;;16.77;42.25;91598.19;6182410;22;21508;-91
2023/12/01 04:55:47;;;;;;;7.00;4.85;;;;;;;16.74;42.29;91602.03;6183091;23;20035;-91
2023/12/01 04:58:13;;;;;;;5.55;4.45;;;;;;;16.74;42.05;91602.03;6182292;22;20482;-91
2023/12/01 05:00:38;;;;;;;6.10;4.43;;;;;;;16.74;42.63;91604.75;6158210;23;20028;-92
2023/12/01 05:03:05;;;;;;;6.57;4.47;;;;;;;16.77;42.18;91600.94;6182604;22;20013;-91
2023/12/01 05:05:31;;;;;;;5.65;4.07;;;;;;;16.73;42.51;91597.09;6158492;23;20031;-92
2023/12/01 05:07:58;;;;;;;6.55;4.43;;;;;;;16.67;42.68;91596.56;6158363;23;20047;-92
2023/12/01 05:10:25;;;;;;;5.75;4.20;;;;;;;16.73;42.31;91592.38;6182214;22;20448;-92
2023/12/01 05:12:54;;;;;;;6.43;4.80;;;;;;;16.70;42.62;91590.00;6158433;23;20016;-92
2023/12/01 05:15:22;;;;;;;4.80;3.55;;;;;;;16.75;42.08;91578.91;6182605;22;20027;-93
2023/12/01 05:17:50;;;;;;;7.13;3.83;;;;;;;16.81;42.21;91586.22;6158523;23;20077;-92
2023/12/01 05:20:16;;;;;;;6.80;4.18;;;;;;;16.65;42.40;91594.38;6157735;22;20017;-92
2023/12/01 05:22:49;;;;;;;5.95;3.63;;;;;;;16.67;42.73;91593.84;6158071;23;20092;-91
2023/12/01 05:25:15;;;;;;;5.68;3.47;;;;;;;16.77;41.87;91595.47;6157488;22;20444;-92
2023/12/01 05:27:44;;;;;;;6.15;3.22;;;;;;;16.70;41.91;91593.47;6182698;23;20067;-92
2023/12/01 05:30:12;;;;;;;5.63;3.45;;;;;;;16.74;42.25;91596.56;6157327;22;20012;-91
2023/12/01 05:32:38;;;;;;;4.20;3.42;;;;;;;16.68;42.48;91593.28;6183303;23;20032;-91
2023/12/01 05:35:05;;;;;;;6.05;3.40;;;;;;;16.73;42.31;91594.38;6157336;22;20021;-92
2023/12/01 05:37:30;;;;;;;4.45;3.38;;;;;;;16.71;42.56;91588.72;6159024;23;20115;-91
2023/12/01 05:39:56;;;;;;;4.18;3.17;;;;;;;16.65;42.34;91596.38;6207141;23;20440;-92
2023/12/01 05:42:21;;;;;;;3.80;3.00;;;;;;;16.70;42.16;91593.47;6182616;22;20500;-91
2023/12/01 05:44:46;;;;;;;4.53;3.17;;;;;;;16.76;42.02;91602.19;6157936;23;20357;-90
2023/12/01 05:47:12;;;;;;;4.38;2.95;;;;;;;16.72;42.21;91592.91;6156861;22;20451;-91
2023/12/01 05:49:37;;;;;;;6.47;2.83;;;;;;;16.71;42.42;91599.63;6157470;23;20020;-91
2023/12/01 05:52:03;;;;;;;4.25;3.30;;;;;;;16.76;42.20;91602.19;6181072;22;20083;-91
2023/12/01 05:54:28;;;;;;;3.45;2.45;;;;;;;16.80;41.94;91604.56;6157987;23;20059;-92
2023/12/01 05:56:55;;;;;;;4.32;2.55;;;;;;;16.71;42.08;91607.81;6157548;23;20090;-92
2023/12/01 05:59:20;;;;;;;3.97;2.58;;;;;;;16.67;42.25;91602.03;6158367;22;20095;-92
2023/12/01 06:01:46;;;;;;;3.42;2.00;;;;;;;16.74;42.03;91604.00;6156979;23;20020;-91
2023/12/01 06:04:13;;;;;;;4.43;2.55;;;;;;;16.73;42.09;91608.00;6156738;22;20096;-92
2023/12/01 06:06:40;;;;;;;3.15;2.30;;;;;;;16.81;42.02;91605.31;6182728;23;20024;-92
2023/12/01 06:09:07;;;;;;;2.88;2.17;;;;;;;16.84;41.67;91601.50;6207615;22;20024;-92
2023/12/01 06:11:32;;;;;;;3.78;2.10;;;;;;;16.79;42.48;91614.03;6157866;23;20020;-92
2023/12/01 06:14:00;;;;;;;2.95;2.15;;;;;;;16.73;42.38;91616.94;6157331;23;20016;-93
2023/12/01 06:16:25;;;;;;;2.95;2.08;;;;;;;16.76;42.04;91617.84;6156865;22;20036;-93
2023/12/01 06:18:51;;;;;;;2.47;1.90;;;;;;;16.86;41.76;91621.50;6157087;23;20023;-92
2023/12/01 06:21:16;;;;;;;2.60;2.30;;;;;;;16.79;42.14;91624.94;6156827;22;20044;-91
2023/12/01 06:23:41;;;;;;;2.65;1.90;;;;;;;16.79;41.94;91625.69;6182683;23;20013;-91
2023/12/01 06:26:07;;;;;;;2.65;1.65;;;;;;;16.87;41.71;91639.34;6156714;22;20016;-92
2023/12/01 06:28:33;;;;;;;2.50;1.73;;;;;;;16.83;42.20;91627.31;6157981;23;20039;-91
2023/12/01 06:30:59;;;;;;;2.45;1.65;;;;;;;16.83;42.10;91630.78;6157099;23;20021;-91
2023/12/01 06:33:26;;;;;;;2.08;1.70;;;;;;;16.79;42.21;91652.25;6157539;22;20076;-93
2023/12/01 06:35:52;;;;;;;2.80;1.90;;;;;;;16.70;42.32;91644.56;6157851;23;20372;-91
2023/12/01 06:38:17;;;;;;;1.88;1.60;;;;;;;16.79;42.12;91657.69;6181234;22;20056;-91
2023/12/01 06:40:43;;;;;;;2.35;1.73;;;;;;;16.82;42.08;91647.69;6157660;23;20028;-93
2023/12/01 06:43:11;;;;;;;2.35;1.52;;;;;;;16.79;41.85;91649.50;6156724;22;20020;-92
2023/12/01 06:45:37;;;;;;;3.15;1.52;;;;;;;16.81;42.01;91646.25;6158249;23;20020;-90
2023/12/01 06:48:03;;;;;;;2.30;1.52;;;;;;;16.82;41.87;91642.97;6181182;22;20008;-91
2023/12/01 06:50:29;;;;;;;1.50;1.30;;;;;;;16.82;42.11;91642.97;6182133;23;20028;-94
2023/12/01 06:52:55;;;;;;;2.72;1.58;;;;;;;16.88;41.44;91640.06;6181528;23;20023;-91
2023/12/01 06:55:20;;;;;;;1.63;1.45;;;;;;;16.84;41.68;91640.44;6180801;22;20490;-91
2023/12/01 06:57:47;;;;;;;2.10;1.42;;;;;;;16.81;42.20;91643.50;6181627;23;20025;-93
2023/12/01 07:00:29;;;;;;;2.55;1.55;;;;;;;16.86;41.49;91648.06;6157046;22;20063;-91
2023/12/01 07:03:04;;;;;;;1.77;1.30;;;;;;;16.84;42.18;91642.44;6161980;23;20031;-90
2023/12/01 07:05:31;;;;;;;2.10;1.38;;;;;;;16.82;42.14;91642.97;6158729;23;20051;-91
2023/12/01 07:07:57;;;;;;;1.80;1.23;;;;;;;16.85;42.12;91641.88;6181527;23;20415;-91
2023/12/01 07:10:23;;;;;;;3.05;1.45;;;;;;;16.80;42.01;91640.06;6155785;22;20031;-91
2023/12/01 07:12:49;;;;;;;2.38;1.63;;;;;;;16.77;42.25;91636.41;6157025;23;20047;-92
2023/12/01 07:15:20;;;;;;;2.10;1.45;;;;;;;16.86;41.59;91628.97;6156712;22;20041;-91
2023/12/01 07:17:45;;;;;;;;;;;;;;;16.82;42.24;91625.88;6159144;23;20091;-93
2023/12/01 07:20:14;;;;;;;1.92;1.35;;;;;;;16.79;42.11;91620.22;6181007;22;20284;-91
2023/12/01 07:22:43;;;;;;;1.30;1.20;;;;;;;16.82;42.14;91623.88;6157779;23;20017;-92
2023/12/01 07:25:11;;;;;;;1.55;0.88;;;;;;;16.79;42.31;91622.22;6155930;22;20734;-92
2023/12/01 07:27:37;;;;;;;2.08;1.20;;;;;;;16.81;41.82;91629.88;6157509;23;20024;-93
2023/12/01 07:30:03;;;;;;;2.13;1.40;;;;;;;16.82;42.43;91639.50;6181205;22;20031;-91
2023/12/01 07:32:28;;;;;;;1.20;0.98;;;;;;;16.82;41.90;91632.06;6157106;23;20032;-93
2023/12/01 07:34:54;;;;;;;1.77;1.10;;;;;;;16.75;42.55;91632.75;6156689;23;20017;-91
2023/12/01 07:37:19;;;;;;;1.02;0.80;;;;;;;16.76;42.16;91634.94;6155912;22;20020;-92
2023/12/01 07:39:45;;;;;;;1.25;0.88;;;;;;;16.84;41.73;91631.50;6181941;23;20071;-92
2023/12/01 07:42:10;;;;;;;0.85;0.82;;;;;;;16.82;41.94;91631.31;6180941;22;20017;-92
2023/12/01 07:44:36;;;;;;;2.10;1.20;;;;;;;16.83;41.91;91644.44;6157866;23;20017;-91
2023/12/01 07:47:04;;;;;;;1.38;1.08;;;;;;;16.90;41.60;91649.16;6181181;23;20337;-92
2023/12/01 07:49:30;;;;;;;1.10;1.00;;;;;;;16.82;42.19;91647.69;6157652;23;20048;-91
2023/12/01 07:51:56;;;;;;;1.25;0.80;;;;;;;16.76;42.20;91653.31;6180439;23;20478;-91
2023/12/01 07:54:22;;;;;;;1.77;1.33;;;;;;;16.86;41.74;91653.53;6180860;22;20277;-92
2023/12/01 07:56:47;;;;;;;2.22;0.88;;;;;;;16.87;41.64;91653.00;6156643;23;20021;-93
2023/12/01 07:59:13;;;;;;;1.48;1.08;;;;;;;16.88;42.12;91654.44;6155758;22;20061;-91
2023/12/01 08:01:38;;;;;;;1.00;0.90;;;;;;;16.92;41.41;91654.81;6181452;23;20083;-91
2023/12/01 08:04:04;;;;;;;1.15;0.70;;;;;;;16.91;41.83;91658.81;6156662;22;20016;-91
2023/12/01 08:06:29;;;;;;;0.90;0.85;;;;;;;16.83;41.97;91657.34;6180812;23;20027;-90
2023/12/01 08:08:55;;;;;;;1.15;0.70;;;;;;;16.83;42.30;91666.25;6156546;23;20740;-91
2023/12/01 08:11:21;;;;;;;1.15;0.90;;;;;;;16.86;41.90;91656.25;6155505;23;20024;-90
2023/12/01 08:13:47;;;;;;;1.27;0.73;;;;;;;16.76;42.27;91653.31;6180898;23;20021;-89
2023/12/01 08:16:12;;;;;;;5.88;1.30;;;;;;;16.77;42.79;91654.78;6158329;22;20055;-91
2023/12/01 08:18:41;;;;;;;1.13;0.90;;;;;;;16.76;42.14;91643.13;6208223;23;20725;-90
2023/12/01 08:21:07;;;;;;;1.15;0.80;;;;;;;16.78;41.96;91654.25;6158804;22;20074;-91
2023/12/01 08:23:32;;;;;;;1.38;0.82;;;;;;;16.81;42.15;91659.88;6158390;23;20028;-92
2023/12/01 08:25:58;;;;;;;1.20;0.90;;;;;;;16.86;42.28;91659.72;6157933;23;20027;-90
2023/12/01 08:28:23;;;;;;;1.05;0.77;;;;;;;16.77;42.20;91663.69;6158595;22;20067;-92
2023/12/01 08:30:49;;;;;;;1.10;0.73;;;;;;;16.77;42.15;91666.41;6182093;23;20047;-89
2023/12/01 08:33:14;;;;;;;0.80;0.70;;;;;;;16.75;42.50;91660.78;6171463;22;20023;-90
2023/12/01 08:35:42;;;;;;;1.00;0.85;;;;;;;16.78;42.34;91681.53;6158068;23;20024;-89
2023/12/01 08:38:10;;;;;;;0.80;0.70;;;;;;;16.78;42.30;91683.53;6157591;22;20352;-90
2023/12/01 08:40:37;;;;;;;1.20;0.80;;;;;;;16.73;42.24;91687.88;6159448;23;20028;-90
2023/12/01 08:43:04;;;;;;;0.90;0.73;;;;;;;16.82;42.13;91683.91;6157863;23;20311;-91
2023/12/01 08:45:31;;;;;;;1.08;0.82;;;;;;;16.84;42.03;91684.09;6125512;23;20021;-92
2023/12/01 08:47:57;;;;;;;0.65;0.55;;;;;;;16.80;42.54;91694.63;6129632;23;20073;-90
2023/12/01 08:50:22;;;;;;;4.03;0.90;;;;;;;16.84;42.28;91686.09;6130902;23;20082;-89
2023/12/01 08:52:48;;;;;;;1.10;0.70;;;;;;;16.85;42.35;91703.94;6103661;23;20021;-90
2023/12/01 08:55:13;;;;;;;0.75;0.70;;;;;;;16.86;42.56;91689.75;6103880;23;20021;-89
2023/12/01 08:57:39;;;;;;;1.05;0.68;;;;;;;16.84;42.10;91695.00;6077627;23;20365;-90
2023/12/01 09:00:06;;;;;;;0.80;0.60;;;;;;;16.89;42.02;91702.28;6064103;23;20068;-89
2023/12/01 09:02:32;;;;;;;2.25;0.93;;;;;;;16.77;42.28;91688.25;6066445;23;20017;-89
2023/12/01 09:04:58;;;;;;;1.23;0.77;;;;;;;16.89;42.29;91685.19;6079489;23;20014;-90
2023/12/01 09:07:24;;;;;;;1.13;0.80;;;;;;;16.73;42.58;91703.50;6101001;23;20509;-90
2023/12/01 09:09:50;;;;;;;1.20;0.70;;;;;;;16.86;42.55;91708.13;6075979;23;20025;-91
2023/12/01 09:12:15;;;;;;;0.68;0.50;;;;;;;16.76;42.71;91696.97;6122963;23;20026;-90
2023/12/01 09:14:43;;;;;;;1.13;0.80;;;;;;;16.81;42.57;91698.81;6074735;23;20017;-90
2023/12/01 09:17:08;;;;;;;14.48;2.78;;;;;;;16.78;42.55;91700.63;6098616;23;20456;-90
2023/12/01 09:19:34;;;;;;;4.95;1.67;;;;;;;16.73;42.74;91693.31;6131651;23;20036;-89
2023/12/01 09:21:59;;;;;;;15.52;2.83;;;;;;;16.75;42.82;91706.44;6134089;23;20017;-90
2023/12/01 09:24:26;;;;;;;16.08;2.33;;;;;;;16.90;42.15;91698.28;6111449;23;20047;-92
2023/12/01 09:26:52;;;;;;;6.97;1.60;;;;;;;16.87;42.35;91698.66;6160274;23;20013;-89
2023/12/01 09:29:18;;;;;;;9.25;1.50;;;;;;;16.84;42.21;91695.00;6134536;23;20024;-91
2023/12/01 09:31:46;;;;;;;2.85;1.08;;;;;;;16.84;42.81;91692.28;6135942;23;20017;-89
2023/12/01 09:34:12;;;;;;;4.03;1.13;;;;;;;16.84;42.37;91692.28;6135115;23;20028;-89
2023/12/01 09:36:38;;;;;;;5.95;1.30;;;;;;;16.88;42.41;91695.38;6135822;23;20033;-89
2023/12/01 09:39:04;;;;;;;6.20;1.20;;;;;;;16.81;42.43;91709.72;6136701;23;20021;-89
2023/12/01 09:41:36;;;;;;;3.58;1.02;;;;;;;16.78;42.62;91699.91;6116145;23;20016;-89
2023/12/01 09:44:02;;;;;;;2.40;1.23;;;;;;;16.93;42.07;91691.75;6161899;23;20021;-89
2023/12/01 09:46:34;;;;;;;4.35;1.20;;;;;;;16.92;42.35;91684.81;6122526;23;20518;-88
2023/12/01 09:49:02;;;;;;;3.40;1.05;;;;;;;16.81;42.49;91693.34;6112481;23;20025;-88
2023/12/01 09:51:27;;;;;;;4.43;1.55;;;;;;;16.87;42.24;91693.19;6135086;23;20017;-88
2023/12/01 09:53:54;;;;;;;8.18;1.52;;;;;;;16.92;42.61;91698.47;6188065;23;20067;-88
2023/12/01 09:56:21;;;;;;;5.03;1.38;;;;;;;16.82;42.59;91699.53;6162350;22;20021;-88
2023/12/01 09:58:47;;;;;;;4.00;1.20;;;;;;;16.84;42.61;91692.28;6160009;23;20401;-89
2023/12/01 10:01:15;;;;;;;2.33;1.08;;;;;;;16.85;42.30;91682.81;6159968;22;20074;-91
2023/12/01 10:03:40;;;;;;;23.23;2.78;;;;;;;16.78;42.68;91688.97;6185298;23;20030;-90
2023/12/01 10:06:07;;;;;;;23.83;4.03;;;;;;;16.80;42.86;91675.53;6209104;22;20081;-88
2023/12/01 10:08:33;;;;;;;17.80;3.20;;;;;;;16.76;42.54;91670.41;6159519;23;20013;-89
2023/12/01 10:11:00;;;;;;;16.08;2.35;;;;;;;16.75;42.81;91668.97;6183995;23;20024;-90
2023/12/01 10:13:38;;;;;;;27.45;3.50;;;;;;;16.77;42.72;91660.97;6160479;22;20034;-91
2023/12/01 10:16:04;;;;;;;12.02;2.45;;;;;;;16.76;42.56;91656.78;6162169;22;20024;-89
2023/12/01 10:18:29;;;;;;;13.98;1.90;;;;;;;16.84;42.61;91656.81;6183935;23;20027;-90
2023/12/01 10:20:55;;;;;;;8.65;2.22;;;;;;;16.87;42.77;91642.06;6182811;23;20021;-90
2023/12/01 10:23:20;;;;;;;8.05;2.00;;;;;;;16.84;42.56;91653.34;6209563;22;20025;-89
2023/12/01 10:25:49;;;;;;;13.63;2.35;;;;;;;16.82;42.60;91667.53;6159623;23;20021;-90
2023/12/01 10:28:16;;;;;;;4.18;1.38;;;;;;;16.94;42.16;91665.91;6161941;22;20016;-90
2023/12/01 10:30:53;;;;;;;11.38;2.17;;;;;;;16.92;42.55;91681.38;6160616;23;20024;-92
2023/12/01 10:33:20;;;;;;;12.85;2.17;;;;;;;16.93;42.57;91666.44;6159748;22;20490;-90
2023/12/01 10:36:06;;;;;;;8.98;2.35;;;;;;;16.87;42.54;91658.44;6165768;23;20017;-92
2023/12/01 10:38:33;;;;;;;13.43;2.40;;;;;;;16.87;42.15;91663.19;6184523;23;20400;-92
2023/12/01 10:40:59;;;;;;;13.95;2.72;;;;;;;16.97;42.29;91662.09;6159140;23;20017;-89
2023/12/01 10:43:26;;;;;;;9.43;2.42;;;;;;;16.91;42.59;91658.81;6186890;22;20020;-92
2023/12/01 10:45:52;;;;;;;15.20;4.85;;;;;;;16.95;42.59;91670.09;6185520;23;20419;-89
2023/12/01 10:48:19;;;;;;;32.30;12.50;;;;;;;16.94;42.66;91663.19;6182926;22;20025;-91
2023/12/01 10:50:47;;;;;;;12.48;4.55;;;;;;;16.90;42.45;91653.88;6159320;23;20024;-89
2023/12/01 10:53:16;;;;;;;10.55;3.53;;;;;;;16.84;42.62;91659.53;6184220;22;20470;-90
2023/12/01 10:55:45;;;;;;;20.50;9.35;;;;;;;16.93;42.56;91661.00;6158132;23;20044;-90
2023/12/01 10:58:11;;;;;;;18.02;4.75;;;;;;;16.86;42.37;91657.00;6158102;22;20265;-90
2023/12/01 11:00:37;;;;;;;13.32;6.38;;;;;;;16.83;42.53;91655.34;6145285;23;20112;-90
2023/12/01 11:03:03;;;;;;;11.85;5.40;;;;;;;16.86;42.63;91645.34;6160651;22;20094;-91
2023/12/01 11:05:32;;;;;;;11.18;4.93;;;;;;;16.87;42.48;91636.63;6146167;23;20021;-89
2023/12/01 11:08:15;;;;;;;11.70;5.63;;;;;;;16.85;42.58;91647.34;6158425;23;20456;-92
2023/12/01 11:10:43;;;;;;;9.35;5.13;;;;;;;16.93;42.47;91650.06;6184039;23;20020;-90
2023/12/01 11:13:36;;;;;;;12.50;5.40;;;;;;;16.95;42.35;91633.88;6212600;22;20072;-91
2023/12/01 11:16:03;;;;;;;9.45;5.50;;;;;;;16.97;42.70;91634.06;6167708;23;20059;-91
2023/12/01 11:18:30;;;;;;;13.23;4.57;;;;;;;16.93;42.37;91636.41;6167477;23;20352;-92
2023/12/01 11:20:55;;;;;;;12.15;4.30;;;;;;;16.87;42.53;91638.63;6191423;23;20325;-90
2023/12/01 11:23:23;;;;;;;12.93;4.43;;;;;;;16.82;42.56;91640.25;6152006;22;20066;-91
2023/12/01 11:25:57;;;;;;;11.20;4.70;;;;;;;16.96;42.28;91638.78;6189116;23;20115;-92